| time (UTC) | temp F | wind direction | speed MPH | gust MPH | rain 1hr in | rain 24hr in | rain mn in | humidity % | barometer mb |
| 20260508201430 | 71 | 207 | 3.0 | 6.0 | 0.00 | 0.00 | 0.00 | 26 | 1019.8 |
| 20260508200432 | 72 | 249 | 3.0 | 7.0 | 0.00 | 0.00 | 0.00 | 26 | 1019.8 |
| 20260508195431 | 72 | 279 | 1.0 | 6.0 | 0.00 | 0.00 | 0.00 | 27 | 1019.8 |
| 20260508194432 | 72 | 227 | 3.0 | 7.0 | 0.00 | 0.00 | 0.00 | 28 | 1020.0 |
| 20260508193431 | 72 | 259 | 2.0 | 5.0 | 0.00 | 0.00 | 0.00 | 28 | 1019.8 |
| 20260508192432 | 72 | 273 | 2.0 | 3.0 | 0.00 | 0.00 | 0.00 | 28 | 1020.0 |
| 20260508191432 | 72 | 244 | 3.0 | 5.0 | 0.00 | 0.00 | 0.00 | 30 | 1020.0 |
| 20260508190433 | 71 | 263 | 1.0 | 2.0 | 0.00 | 0.00 | 0.00 | 29 | 1020.1 |
| 20260508185432 | 71 | 209 | 1.0 | 7.0 | 0.00 | 0.00 | 0.00 | 32 | 1020.1 |
| 20260508184432 | 71 | 272 | 3.0 | 8.0 | 0.00 | 0.00 | 0.00 | 33 | 1020.2 |
| 20260508183430 | 70 | 249 | 2.0 | 11.0 | 0.00 | 0.00 | 0.00 | 33 | 1020.3 |
| 20260508182432 | 70 | 275 | 1.0 | 3.0 | 0.00 | 0.00 | 0.00 | 32 | 1020.3 |
| 20260508182334 | 71 | 269 | 3.0 | 7.0 | 0.00 | 0.00 | 0.00 | 33 | 1020.4 |
| 20260508181330 | 70 | 231 | 1.0 | 3.0 | 0.00 | 0.00 | 0.00 | 31 | 1020.3 |
| 20260508180332 | 70 | 274 | 2.0 | 5.0 | 0.00 | 0.00 | 0.00 | 32 | 1020.5 |
| 20260508174330 | 69 | 303 | 1.0 | 7.0 | 0.00 | 0.00 | 0.00 | 32 | 1020.5 |
| 20260508173330 | 68 | 256 | 4.0 | 6.0 | 0.00 | 0.00 | 0.00 | 33 | 1020.6 |
| 20260508172332 | 68 | 295 | 1.0 | 4.0 | 0.00 | 0.00 | 0.00 | 32 | 1020.7 |
| 20260508171330 | 67 | 302 | 1.0 | 6.0 | 0.00 | 0.00 | 0.00 | 35 | 1020.5 |
| 20260508170331 | 64 | 290 | 0.0 | 2.0 | 0.00 | 0.00 | 0.00 | 42 | 1020.6 |
| 20260508164332 | 61 | 336 | 0.0 | 2.0 | 0.00 | 0.00 | 0.00 | 47 | 1021.0 |
| 20260508162330 | 59 | 157 | 0.0 | 0.0 | 0.00 | 0.00 | 0.00 | 49 | 1021.0 |
| 20260508162230 | 59 | 157 | 0.0 | 2.0 | 0.00 | 0.00 | 0.00 | 49 | 1021.1 |
| 20260508161232 | 58 | 202 | 0.0 | 0.0 | 0.00 | 0.00 | 0.00 | 51 | 1021.2 |
| 20260508160233 | 56 | 225 | 0.0 | 2.0 | 0.00 | 0.00 | 0.00 | 54 | 1021.4 |
| 20260508153331 | 53 | 112 | 0.0 | 1.0 | 0.00 | 0.00 | 0.00 | 57 | 1021.6 |
| 20260508152430 | 52 | 225 | 0.0 | 1.0 | 0.00 | 0.00 | 0.00 | 60 | 1021.5 |
| 20260508151431 | 50 | 202 | 0.0 | 0.0 | 0.00 | 0.00 | 0.00 | 63 | 1021.6 |
| 20260508150430 | 49 | 202 | 0.0 | 0.0 | 0.00 | 0.00 | 0.00 | 65 | 1021.5 |
| 20260508144432 | 47 | 180 | 0.0 | 0.0 | 0.00 | 0.00 | 0.00 | 72 | 1021.4 |
| 20260508143430 | 45 | 225 | 0.0 | 0.0 | 0.00 | 0.00 | 0.00 | 76 | 1021.4 |
| 20260508143334 | 45 | 225 | 0.0 | 0.0 | 0.00 | 0.00 | 0.00 | 76 | 1021.4 |
| 20260508142431 | 43 | 292 | 0.0 | 0.0 | 0.00 | 0.00 | 0.00 | 80 | 1021.4 |
| 20260508140432 | 39 | 270 | 0.0 | 0.0 | 0.00 | 0.00 | 0.00 | 85 | 1021.1 |
| 20260508135431 | 37 | 327 | 0.0 | 0.0 | 0.00 | 0.00 | 0.00 | 86 | 1020.8 |
| 20260508134430 | 36 | 337 | 0.0 | 0.0 | 0.00 | 0.00 | 0.00 | 87 | 1020.8 |
| 20260508133434 | 36 | 337 | 0.0 | 0.0 | 0.00 | 0.00 | 0.00 | 88 | 1020.7 |
| 20260508132430 | 35 | 360 | 0.0 | 0.0 | 0.00 | 0.00 | 0.00 | 89 | 1020.5 |
| 20260508131430 | 34 | 360 | 0.0 | 0.0 | 0.00 | 0.00 | 0.00 | 88 | 1020.4 |
| 20260508130431 | 34 | 360 | 0.0 | 0.0 | 0.00 | 0.00 | 0.00 | 88 | 1020.4 |
| 20260508125431 | 34 | 360 | 0.0 | 0.0 | 0.00 | 0.00 | 0.00 | 88 | 1020.2 |
| 20260508124433 | 34 | 360 | 0.0 | 0.0 | 0.00 | 0.00 | 0.00 | 88 | 1020.0 |
| 20260508123432 | 34 | 360 | 0.0 | 0.0 | 0.00 | 0.00 | 0.00 | 88 | 1019.9 |
| 20260508122529 | 34 | 360 | 0.0 | 0.0 | 0.00 | 0.00 | 0.00 | 87 | 1019.8 |
| 20260508121531 | 34 | 360 | 0.0 | 0.0 | 0.00 | 0.00 | 0.00 | 87 | 1019.8 |
| 20260508114630 | 35 | 360 | 0.0 | 0.0 | 0.00 | 0.00 | 0.00 | 87 | 1019.8 |
| 20260508113729 | 35 | 360 | 0.0 | 1.0 | 0.00 | 0.00 | 0.00 | 86 | 1019.7 |
| 20260508112732 | 35 | 360 | 0.0 | 0.0 | 0.00 | 0.00 | 0.00 | 86 | 1019.8 |
| 20260508111730 | 35 | 360 | 0.0 | 0.0 | 0.00 | 0.00 | 0.00 | 87 | 1019.8 |
| 20260508110732 | 35 | 360 | 0.0 | 0.0 | 0.00 | 0.00 | 0.00 | 86 | 1019.6 |
| 20260508105731 | 35 | 360 | 0.0 | 0.0 | 0.00 | 0.00 | 0.00 | 86 | 1019.5 |
| 20260508104732 | 35 | 315 | 0.0 | 0.0 | 0.00 | 0.00 | 0.00 | 86 | 1019.5 |
| 20260508103732 | 35 | 315 | 0.0 | 0.0 | 0.00 | 0.00 | 0.00 | 85 | 1019.3 |
| 20260508102733 | 35 | 315 | 0.0 | 0.0 | 0.00 | 0.00 | 0.00 | 85 | 1019.3 |
| 20260508101832 | 36 | 315 | 0.0 | 0.0 | 0.00 | 0.00 | 0.00 | 84 | 1019.3 |
| 20260508100830 | 36 | 315 | 0.0 | 0.0 | 0.00 | 0.00 | 0.00 | 84 | 1019.1 |
| 20260508095831 | 36 | 315 | 0.0 | 0.0 | 0.00 | 0.00 | 0.00 | 83 | 1019.0 |
| 20260508094831 | 36 | 315 | 0.0 | 0.0 | 0.00 | 0.00 | 0.00 | 83 | 1019.1 |
| 20260508092830 | 37 | 315 | 0.0 | 0.0 | 0.00 | 0.00 | 0.00 | 81 | 1019.2 |
| 20260508092731 | 37 | 315 | 0.0 | 0.0 | 0.00 | 0.00 | 0.00 | 82 | 1019.1 |
| 20260508090830 | 37 | 315 | 0.0 | 0.0 | 0.00 | 0.00 | 0.00 | 82 | 1019.1 |
| 20260508085829 | 38 | 315 | 0.0 | 0.0 | 0.00 | 0.00 | 0.00 | 80 | 1019.1 |
| 20260508084830 | 38 | 315 | 0.0 | 0.0 | 0.00 | 0.00 | 0.00 | 81 | 1019.0 |
| 20260508083831 | 38 | 22 | 0.0 | 0.0 | 0.00 | 0.00 | 0.00 | 80 | 1019.1 |
| 20260508082832 | 38 | 22 | 0.0 | 0.0 | 0.00 | 0.00 | 0.00 | 79 | 1019.1 |
| 20260508081832 | 38 | 22 | 0.0 | 0.0 | 0.00 | 0.00 | 0.00 | 79 | 1019.1 |
| 20260508080834 | 39 | 110 | 0.0 | 0.0 | 0.00 | 0.00 | 0.00 | 79 | 1019.1 |
| 20260508075831 | 39 | 135 | 0.0 | 0.0 | 0.00 | 0.00 | 0.00 | 79 | 1019.1 |
| 20260508075732 | 39 | 135 | 0.0 | 0.0 | 0.00 | 0.00 | 0.00 | 79 | 1019.1 |
| 20260508074830 | 39 | 292 | 0.0 | 1.0 | 0.00 | 0.00 | 0.00 | 78 | 1019.1 |
| 20260508073832 | 40 | 292 | 0.0 | 0.0 | 0.00 | 0.00 | 0.00 | 77 | 1019.1 |
| 20260508072832 | 40 | 202 | 0.0 | 0.0 | 0.00 | 0.00 | 0.00 | 77 | 1019.0 |
| 20260508071930 | 40 | 254 | 0.0 | 2.0 | 0.00 | 0.00 | 0.00 | 76 | 1019.0 |
| 20260508071030 | 40 | 292 | 0.0 | 0.0 | 0.00 | 0.00 | 0.00 | 76 | 1019.1 |
| 20260508070129 | 41 | 292 | 0.0 | 0.0 | 0.00 | 0.00 | 0.00 | 75 | 1019.0 |
| 20260508065133 | 41 | 292 | 0.0 | 0.0 | 0.00 | 0.00 | 0.00 | 75 | 1018.7 |
| 20260508064129 | 42 | 292 | 0.0 | 0.0 | 0.00 | 0.00 | 0.00 | 74 | 1019.0 |
| 20260508063129 | 42 | 292 | 0.0 | 0.0 | 0.00 | 0.00 | 0.00 | 73 | 1018.9 |
| 20260508062131 | 42 | 292 | 0.0 | 0.0 | 0.00 | 0.00 | 0.00 | 71 | 1018.7 |
| 20260508061131 | 43 | 292 | 0.0 | 0.0 | 0.00 | 0.00 | 0.00 | 70 | 1018.7 |
| 20260508055108 | 44 | 292 | 0.0 | 0.0 | 0.00 | 0.00 | 0.00 | 68 | 1018.6 |
| 20260508054110 | 45 | 292 | 0.0 | 0.0 | 0.00 | 0.00 | 0.00 | 66 | 1018.5 |
| 20260508054009 | 45 | 292 | 0.0 | 0.0 | 0.00 | 0.00 | 0.00 | 66 | 1018.7 |
| 20260508053107 | 46 | 292 | 0.0 | 0.0 | 0.00 | 0.00 | 0.00 | 64 | 1018.6 |
| 20260508052108 | 46 | 292 | 0.0 | 0.0 | 0.00 | 0.00 | 0.00 | 63 | 1018.6 |
| 20260508051109 | 47 | 292 | 0.0 | 0.0 | 0.00 | 0.00 | 0.00 | 62 | 1018.5 |
| 20260508050207 | 48 | 292 | 0.0 | 0.0 | 0.00 | 0.00 | 0.00 | 61 | 1018.5 |
| 20260508045209 | 49 | 22 | 0.0 | 0.0 | 0.00 | 0.00 | 0.00 | 59 | 1018.5 |
| 20260508043209 | 49 | 275 | 0.0 | 0.0 | 0.00 | 0.00 | 0.00 | 59 | 1018.5 |
| 20260508041309 | 50 | 292 | 0.0 | 0.0 | 0.00 | 0.00 | 0.00 | 56 | 1018.3 |
| 20260508040308 | 51 | 292 | 0.0 | 0.0 | 0.00 | 0.00 | 0.00 | 54 | 1018.1 |
| 20260508035308 | 53 | 292 | 0.0 | 0.0 | 0.00 | 0.00 | 0.00 | 51 | 1018.1 |
| 20260508033310 | 55 | 22 | 0.0 | 0.0 | 0.00 | 0.00 | 0.00 | 48 | 1018.0 |
| 20260508032409 | 55 | 342 | 0.0 | 1.0 | 0.00 | 0.00 | 0.00 | 48 | 1017.8 |
| 20260508031409 | 55 | 315 | 0.0 | 0.0 | 0.00 | 0.00 | 0.00 | 47 | 1017.6 |
| 20260508030409 | 57 | 315 | 0.0 | 0.0 | 0.00 | 0.00 | 0.00 | 45 | 1017.6 |
| 20260508024409 | 59 | 22 | 2.0 | 2.0 | 0.00 | 0.00 | 0.00 | 41 | 1017.4 |
| 20260508023508 | 61 | 360 | 0.0 | 1.0 | 0.00 | 0.00 | 0.00 | 38 | 1017.3 |
| 20260508022509 | 64 | 360 | 1.0 | 2.0 | 0.00 | 0.00 | 0.00 | 33 | 1017.2 |
| 20260508020508 | 67 | 288 | 0.0 | 1.0 | 0.00 | 0.00 | 0.00 | 30 | 1017.0 |
| 20260508015507 | 68 | 262 | 0.0 | 1.0 | 0.00 | 0.00 | 0.00 | 30 | 1017.0 |
| 20260508015408 | 68 | 270 | 0.0 | 2.0 | 0.00 | 0.00 | 0.00 | 30 | 1017.1 |
| 20260508014409 | 69 | 292 | 0.0 | 2.0 | 0.00 | 0.00 | 0.00 | 29 | 1017.2 |
| 20260508013410 | 70 | 270 | 0.0 | 2.0 | 0.00 | 0.00 | 0.00 | 28 | 1017.0 |
| 20260508012410 | 71 | 276 | 1.0 | 4.0 | 0.00 | 0.00 | 0.00 | 28 | 1017.1 |
| 20260508011426 | 71 | 266 | 0.0 | 2.0 | 0.00 | 0.00 | 0.00 | 27 | 1017.0 |
| 20260508010508 | 72 | 271 | 0.0 | 4.0 | 0.00 | 0.00 | 0.00 | 27 | 1017.1 |
| 20260508004510 | 72 | 265 | 0.0 | 2.0 | 0.00 | 0.00 | 0.00 | 26 | 1017.0 |
| 20260508003508 | 72 | 275 | 1.0 | 4.0 | 0.00 | 0.00 | 0.00 | 27 | 1017.0 |
| 20260508001510 | 73 | 235 | 2.0 | 4.0 | 0.00 | 0.00 | 0.00 | 27 | 1017.0 |
| 20260508000607 | 72 | 237 | 2.0 | 4.0 | 0.00 | 0.00 | 0.00 | 27 | 1017.2 |
| 20260507235607 | 73 | 283 | 2.0 | 4.0 | 0.00 | 0.00 | 0.00 | 27 | 1017.6 |
| 20260507233708 | 72 | 13 | 0.0 | 2.0 | 0.00 | 0.00 | 0.00 | 28 | 1017.6 |
| 20260507232707 | 72 | 229 | 0.0 | 3.0 | 0.00 | 0.00 | 0.00 | 29 | 1017.8 |
| 20260507231707 | 71 | 251 | 1.0 | 2.0 | 0.00 | 0.00 | 0.00 | 29 | 1017.9 |
| 20260507230710 | 69 | 315 | 0.0 | 1.0 | 0.00 | 0.00 | 0.00 | 30 | 1018.0 |
| 20260507225807 | 68 | 16 | 0.0 | 2.0 | 0.00 | 0.00 | 0.00 | 30 | 1018.2 |
| 20260507224808 | 68 | 360 | 1.0 | 2.0 | 0.00 | 0.00 | 0.00 | 30 | 1018.6 |
| 20260507223808 | 68 | 270 | 1.0 | 4.0 | 0.00 | 0.00 | 0.00 | 30 | 1018.6 |
| 20260507222906 | 68 | 279 | 0.0 | 3.0 | 0.00 | 0.00 | 0.00 | 30 | 1018.6 |
| 20260507221911 | 68 | 289 | 0.0 | 3.0 | 0.00 | 0.00 | 0.00 | 29 | 1018.7 |
| 20260507221008 | 68 | 278 | 3.0 | 7.0 | 0.00 | 0.00 | 0.00 | 29 | 1018.8 |
| 20260507220008 | 69 | 275 | 1.0 | 4.0 | 0.00 | 0.00 | 0.00 | 29 | 1019.0 |
| 20260507215010 | 69 | 354 | 2.0 | 4.0 | 0.00 | 0.00 | 0.00 | 28 | 1019.0 |
| 20260507214108 | 70 | 280 | 2.0 | 9.0 | 0.00 | 0.00 | 0.00 | 27 | 1019.1 |
| 20260507213108 | 71 | 313 | 1.0 | 5.0 | 0.00 | 0.00 | 0.00 | 27 | 1019.1 |
| 20260507212207 | 71 | 326 | 1.0 | 5.0 | 0.00 | 0.00 | 0.00 | 26 | 1019.4 |
| 20260507211208 | 72 | 275 | 2.0 | 6.0 | 0.00 | 0.00 | 0.00 | 26 | 1019.4 |
| 20260507210208 | 72 | 291 | 2.0 | 6.0 | 0.00 | 0.00 | 0.00 | 26 | 1019.5 |
| 20260507205210 | 72 | 292 | 1.0 | 4.0 | 0.00 | 0.00 | 0.00 | 26 | 1019.6 |
| 20260507204308 | 72 | 219 | 1.0 | 4.0 | 0.00 | 0.00 | 0.00 | 26 | 1019.8 |
| 20260507203407 | 72 | 277 | 2.0 | 6.0 | 0.00 | 0.00 | 0.00 | 25 | 1019.7 |